LHA8887 KBFI-CYXC
Flight info
| Callsign | LHA8887 |
|---|---|
| Flight time | 0h 50m |
| Altitude | 39000 |
| Route | SEA J505 YXC |
| Aircraft | B752/M-SDE1E2FGIJ1RWYZE3/S |
Departure
| Time | 2026-05-06 15:37 |
|---|---|
| Airport | King County International Airport - Boeing Field (KBFI) |
Arrival
| Time | 2026-05-06 16:28 |
|---|---|
| Airport | Cranbrook/Canadian Rockies International Airport (CYXC) |
| Time | Latitude | Longitude | Altitude | Speed | Heading |
|---|---|---|---|---|---|
| 2026-05-06 15:09 | 47.53608 | -122.30383 | 26 ft | 0 kts | 142° |
| 2026-05-06 15:31 | 47.53601 | -122.30374 | 25 ft | 3 kts | 142° |
| 2026-05-06 15:32 | 47.53566 | -122.30366 | 25 ft | 2 kts | 231° |
| 2026-05-06 15:32 | 47.53562 | -122.30389 | 25 ft | 2 kts | 282° |
| 2026-05-06 15:32 | 47.53577 | -122.30428 | 24 ft | 5 kts | 308° |
| 2026-05-06 15:32 | 47.53609 | -122.30474 | 24 ft | 7 kts | 319° |
| 2026-05-06 15:33 | 47.53651 | -122.30528 | 24 ft | 8 kts | 319° |
| 2026-05-06 15:33 | 47.53695 | -122.30568 | 24 ft | 7 kts | 335° |
| 2026-05-06 15:33 | 47.53725 | -122.30589 | 24 ft | 8 kts | 334° |
| 2026-05-06 15:34 | 47.53748 | -122.30605 | 24 ft | 8 kts | 334° |
| 2026-05-06 15:34 | 47.53802 | -122.30647 | 25 ft | 9 kts | 332° |
| 2026-05-06 15:34 | 47.53844 | -122.30682 | 25 ft | 9 kts | 327° |
| 2026-05-06 15:35 | 47.53896 | -122.30730 | 25 ft | 9 kts | 328° |
| 2026-05-06 15:35 | 47.53967 | -122.30792 | 25 ft | 13 kts | 330° |
| 2026-05-06 15:35 | 47.54056 | -122.30876 | 26 ft | 16 kts | 321° |
| 2026-05-06 15:36 | 47.54092 | -122.30991 | 25 ft | 11 kts | 259° |
| 2026-05-06 15:36 | 47.54063 | -122.31085 | 24 ft | 10 kts | 240° |
| 2026-05-06 15:36 | 47.54030 | -122.31108 | 24 ft | 3 kts | 166° |
| 2026-05-06 15:36 | 47.53998 | -122.31087 | 24 ft | 7 kts | 152° |
| 2026-05-06 15:37 | 47.53716 | -122.30856 | 23 ft | 99 kts | 151° |
| 2026-05-06 15:37 | 47.52833 | -122.30153 | 273 ft | 172 kts | 155° |
| 2026-05-06 15:37 | 47.51650 | -122.29270 | 940 ft | 216 kts | 151° |
| 2026-05-06 15:37 | 47.50270 | -122.28067 | 1796 ft | 236 kts | 149° |
| 2026-05-06 15:38 | 47.48799 | -122.26798 | 2419 ft | 252 kts | 150° |
| 2026-05-06 15:38 | 47.47281 | -122.25498 | 3280 ft | 257 kts | 151° |
| 2026-05-06 15:38 | 47.45727 | -122.24156 | 4122 ft | 263 kts | 148° |
| 2026-05-06 15:38 | 47.44523 | -122.22253 | 5173 ft | 259 kts | 118° |
| 2026-05-06 15:39 | 47.44085 | -122.19698 | 6002 ft | 265 kts | 87° |
| 2026-05-06 15:39 | 47.44532 | -122.17007 | 6543 ft | 281 kts | 58° |
| 2026-05-06 15:39 | 47.45844 | -122.14901 | 7445 ft | 280 kts | 31° |
| 2026-05-06 15:39 | 47.47489 | -122.13428 | 8352 ft | 283 kts | 27° |
| 2026-05-06 15:40 | 47.49174 | -122.11922 | 9251 ft | 287 kts | 30° |
| 2026-05-06 15:40 | 47.50733 | -122.10068 | 10092 ft | 296 kts | 41° |
| 2026-05-06 15:40 | 47.52119 | -122.07726 | 10660 ft | 315 kts | 49° |
| 2026-05-06 15:40 | 47.53439 | -122.04961 | 11074 ft | 338 kts | 53° |
| 2026-05-06 15:41 | 47.54720 | -122.01958 | 11468 ft | 359 kts | 56° |
| 2026-05-06 15:41 | 47.56031 | -121.98688 | 11880 ft | 379 kts | 57° |
| 2026-05-06 15:41 | 47.57350 | -121.95273 | 12642 ft | 386 kts | 58° |
| 2026-05-06 15:41 | 47.58672 | -121.91794 | 13400 ft | 392 kts | 58° |
| 2026-05-06 15:42 | 47.59992 | -121.88277 | 14101 ft | 398 kts | 58° |
| 2026-05-06 15:42 | 47.62667 | -121.81095 | 15559 ft | 406 kts | 58° |
| 2026-05-06 15:42 | 47.64024 | -121.77435 | 16223 ft | 412 kts | 58° |
| 2026-05-06 15:43 | 47.65403 | -121.73705 | 16929 ft | 416 kts | 58° |
| 2026-05-06 15:43 | 47.66805 | -121.69907 | 17604 ft | 421 kts | 58° |
| 2026-05-06 15:43 | 47.68196 | -121.66132 | 18253 ft | 426 kts | 58° |
| 2026-05-06 15:43 | 47.69623 | -121.62253 | 18914 ft | 430 kts | 58° |
| 2026-05-06 15:44 | 47.71061 | -121.58340 | 19579 ft | 433 kts | 58° |
| 2026-05-06 15:44 | 47.72489 | -121.54448 | 20217 ft | 438 kts | 58° |
| 2026-05-06 15:44 | 47.73950 | -121.50459 | 20836 ft | 442 kts | 58° |
| 2026-05-06 15:44 | 47.75413 | -121.46458 | 21517 ft | 445 kts | 58° |
| 2026-05-06 15:45 | 47.76909 | -121.42395 | 22122 ft | 450 kts | 58° |
| 2026-05-06 15:45 | 47.78422 | -121.38313 | 22720 ft | 454 kts | 57° |
| 2026-05-06 15:45 | 47.79939 | -121.34209 | 23359 ft | 457 kts | 58° |
| 2026-05-06 15:45 | 47.81470 | -121.30062 | 23866 ft | 463 kts | 58° |
| 2026-05-06 15:46 | 47.83018 | -121.25858 | 24543 ft | 463 kts | 58° |
| 2026-05-06 15:46 | 47.84578 | -121.21620 | 25018 ft | 469 kts | 58° |
| 2026-05-06 15:46 | 47.86124 | -121.17410 | 25607 ft | 470 kts | 58° |
| 2026-05-06 15:46 | 47.87703 | -121.13105 | 25991 ft | 476 kts | 58° |
| 2026-05-06 15:47 | 47.89291 | -121.08770 | 26556 ft | 478 kts | 58° |
| 2026-05-06 15:47 | 47.90872 | -121.04444 | 27000 ft | 481 kts | 58° |
| 2026-05-06 15:47 | 47.92477 | -121.00044 | 27437 ft | 485 kts | 58° |
| 2026-05-06 15:47 | 47.94075 | -120.95657 | 27863 ft | 489 kts | 58° |
| 2026-05-06 15:48 | 47.95703 | -120.91181 | 28325 ft | 491 kts | 58° |
| 2026-05-06 15:48 | 47.97337 | -120.86682 | 28668 ft | 496 kts | 58° |
| 2026-05-06 15:48 | 47.98977 | -120.82156 | 29139 ft | 497 kts | 58° |
| 2026-05-06 15:48 | 48.00610 | -120.77641 | 29477 ft | 501 kts | 58° |
| 2026-05-06 15:49 | 48.02259 | -120.73076 | 29932 ft | 502 kts | 58° |
| 2026-05-06 15:49 | 48.03925 | -120.68457 | 30227 ft | 507 kts | 58° |
| 2026-05-06 15:49 | 48.05589 | -120.63838 | 30581 ft | 509 kts | 58° |
| 2026-05-06 15:49 | 48.07258 | -120.59190 | 30995 ft | 510 kts | 58° |
| 2026-05-06 15:50 | 48.08924 | -120.54542 | 31434 ft | 509 kts | 58° |
| 2026-05-06 15:50 | 48.10580 | -120.49918 | 31847 ft | 509 kts | 57° |
| 2026-05-06 15:50 | 48.12262 | -120.45209 | 32306 ft | 508 kts | 57° |
| 2026-05-06 15:50 | 48.13916 | -120.40572 | 32743 ft | 508 kts | 57° |
| 2026-05-06 15:51 | 48.15567 | -120.35936 | 33192 ft | 507 kts | 57° |
| 2026-05-06 15:51 | 48.17218 | -120.31290 | 33624 ft | 507 kts | 58° |
| 2026-05-06 15:51 | 48.18862 | -120.26659 | 34068 ft | 505 kts | 58° |
| 2026-05-06 15:51 | 48.20517 | -120.21984 | 34460 ft | 505 kts | 58° |
| 2026-05-06 15:52 | 48.22156 | -120.17348 | 34840 ft | 505 kts | 58° |
| 2026-05-06 15:52 | 48.23781 | -120.12744 | 35346 ft | 502 kts | 58° |
| 2026-05-06 15:52 | 48.25416 | -120.08105 | 35619 ft | 504 kts | 58° |
| 2026-05-06 15:52 | 48.27039 | -120.03489 | 36032 ft | 502 kts | 58° |
| 2026-05-06 15:53 | 48.28652 | -119.98896 | 36344 ft | 502 kts | 58° |
| 2026-05-06 15:53 | 48.30275 | -119.94265 | 36726 ft | 501 kts | 58° |
| 2026-05-06 15:53 | 48.31896 | -119.89633 | 37029 ft | 500 kts | 58° |
| 2026-05-06 15:53 | 48.33496 | -119.85052 | 37187 ft | 502 kts | 58° |
| 2026-05-06 15:54 | 48.35118 | -119.80399 | 37560 ft | 499 kts | 58° |
| 2026-05-06 15:54 | 48.36714 | -119.75816 | 37663 ft | 502 kts | 58° |
| 2026-05-06 15:54 | 48.38338 | -119.71142 | 37916 ft | 501 kts | 58° |
| 2026-05-06 15:54 | 48.39940 | -119.66522 | 38145 ft | 501 kts | 58° |
| 2026-05-06 15:55 | 48.41546 | -119.61887 | 38268 ft | 502 kts | 58° |
| 2026-05-06 15:55 | 48.43148 | -119.57250 | 38497 ft | 501 kts | 58° |
| 2026-05-06 15:55 | 48.44751 | -119.52600 | 38651 ft | 501 kts | 58° |
| 2026-05-06 15:55 | 48.46352 | -119.47952 | 38800 ft | 501 kts | 58° |
| 2026-05-06 15:56 | 48.47953 | -119.43294 | 38905 ft | 501 kts | 58° |
| 2026-05-06 15:56 | 48.49532 | -119.38688 | 38959 ft | 498 kts | 57° |
| 2026-05-06 15:56 | 48.52716 | -119.29387 | 38972 ft | 498 kts | 58° |
| 2026-05-06 15:57 | 48.55893 | -119.20068 | 38973 ft | 499 kts | 58° |
| 2026-05-06 15:57 | 48.59039 | -119.10809 | 38973 ft | 498 kts | 58° |
| 2026-05-06 15:58 | 48.62198 | -119.01474 | 38973 ft | 498 kts | 58° |
| 2026-05-06 15:58 | 48.65376 | -118.92052 | 38973 ft | 498 kts | 58° |
| 2026-05-06 15:59 | 48.68546 | -118.82616 | 38970 ft | 497 kts | 58° |
| 2026-05-06 15:59 | 48.71671 | -118.73281 | 38974 ft | 498 kts | 58° |
| 2026-05-06 16:00 | 48.74809 | -118.63873 | 38988 ft | 496 kts | 58° |
| 2026-05-06 16:00 | 48.77936 | -118.54465 | 38994 ft | 496 kts | 58° |
| 2026-05-06 16:01 | 48.81048 | -118.45067 | 38991 ft | 497 kts | 58° |
| 2026-05-06 16:01 | 48.84127 | -118.35731 | 38981 ft | 495 kts | 58° |
| 2026-05-06 16:02 | 48.87200 | -118.26381 | 38977 ft | 496 kts | 59° |
| 2026-05-06 16:02 | 48.90266 | -118.17018 | 38976 ft | 495 kts | 59° |
| 2026-05-06 16:03 | 48.93309 | -118.07691 | 38968 ft | 493 kts | 59° |
| 2026-05-06 16:03 | 48.96326 | -117.98403 | 38971 ft | 493 kts | 59° |
| 2026-05-06 16:04 | 48.99345 | -117.89043 | 38983 ft | 493 kts | 59° |
| 2026-05-06 16:04 | 49.02301 | -117.79832 | 38954 ft | 473 kts | 58° |
| 2026-05-06 16:05 | 49.03728 | -117.75372 | 38792 ft | 463 kts | 58° |
| 2026-05-06 16:05 | 49.05136 | -117.70976 | 38179 ft | 462 kts | 58° |
| 2026-05-06 16:05 | 49.06524 | -117.66636 | 37508 ft | 462 kts | 58° |
| 2026-05-06 16:05 | 49.07943 | -117.62188 | 36788 ft | 462 kts | 58° |
| 2026-05-06 16:06 | 49.09320 | -117.57860 | 36133 ft | 462 kts | 58° |
| 2026-05-06 16:06 | 49.10725 | -117.53444 | 35322 ft | 464 kts | 59° |
| 2026-05-06 16:06 | 49.12127 | -117.49020 | 34680 ft | 462 kts | 58° |
| 2026-05-06 16:06 | 49.13509 | -117.44658 | 33846 ft | 465 kts | 59° |
| 2026-05-06 16:07 | 49.14910 | -117.40222 | 33168 ft | 464 kts | 59° |
| 2026-05-06 16:07 | 49.16313 | -117.35775 | 32360 ft | 467 kts | 59° |
| 2026-05-06 16:07 | 49.17716 | -117.31324 | 31526 ft | 469 kts | 59° |
| 2026-05-06 16:07 | 49.19137 | -117.26804 | 30725 ft | 470 kts | 59° |
| 2026-05-06 16:08 | 49.20535 | -117.22347 | 29919 ft | 471 kts | 59° |
| 2026-05-06 16:08 | 49.21950 | -117.17827 | 29110 ft | 472 kts | 59° |
| 2026-05-06 16:08 | 49.23355 | -117.13331 | 28434 ft | 469 kts | 59° |
| 2026-05-06 16:08 | 49.24754 | -117.08845 | 27823 ft | 464 kts | 59° |
| 2026-05-06 16:09 | 49.26116 | -117.04469 | 27231 ft | 459 kts | 60° |
| 2026-05-06 16:09 | 49.27475 | -117.00100 | 26659 ft | 454 kts | 60° |
| 2026-05-06 16:09 | 49.28814 | -116.95782 | 26089 ft | 449 kts | 59° |
| 2026-05-06 16:09 | 49.30144 | -116.91489 | 25527 ft | 444 kts | 59° |
| 2026-05-06 16:10 | 49.31450 | -116.87267 | 24934 ft | 439 kts | 59° |
| 2026-05-06 16:10 | 49.32748 | -116.83063 | 24347 ft | 435 kts | 59° |
| 2026-05-06 16:10 | 49.34027 | -116.78913 | 23836 ft | 428 kts | 59° |
| 2026-05-06 16:10 | 49.35283 | -116.74850 | 23316 ft | 421 kts | 59° |
| 2026-05-06 16:11 | 49.36526 | -116.70828 | 22772 ft | 415 kts | 59° |
| 2026-05-06 16:11 | 49.37752 | -116.66856 | 22250 ft | 413 kts | 59° |
| 2026-05-06 16:11 | 49.38965 | -116.62921 | 21738 ft | 413 kts | 59° |
| 2026-05-06 16:11 | 49.40189 | -116.58946 | 21223 ft | 412 kts | 59° |
| 2026-05-06 16:12 | 49.41409 | -116.54971 | 20709 ft | 409 kts | 59° |
| 2026-05-06 16:12 | 49.42619 | -116.51024 | 20204 ft | 406 kts | 59° |
| 2026-05-06 16:12 | 49.43808 | -116.47135 | 19693 ft | 401 kts | 59° |
| 2026-05-06 16:12 | 49.44977 | -116.43309 | 19188 ft | 397 kts | 59° |
| 2026-05-06 16:13 | 49.46140 | -116.39498 | 18693 ft | 394 kts | 59° |
| 2026-05-06 16:13 | 49.47296 | -116.35704 | 18204 ft | 391 kts | 59° |
| 2026-05-06 16:13 | 49.48432 | -116.31968 | 17714 ft | 387 kts | 60° |
| 2026-05-06 16:13 | 49.49564 | -116.28243 | 17226 ft | 384 kts | 60° |
| 2026-05-06 16:14 | 49.50689 | -116.24535 | 16752 ft | 381 kts | 60° |
| 2026-05-06 16:14 | 49.51793 | -116.20889 | 16301 ft | 379 kts | 60° |
| 2026-05-06 16:14 | 49.52897 | -116.17240 | 15822 ft | 376 kts | 60° |
| 2026-05-06 16:14 | 49.54094 | -116.13696 | 15343 ft | 366 kts | 51° |
| 2026-05-06 16:15 | 49.55727 | -116.10870 | 14885 ft | 354 kts | 36° |
| 2026-05-06 16:15 | 49.57793 | -116.08905 | 14455 ft | 344 kts | 19° |
| 2026-05-06 16:15 | 49.60030 | -116.07784 | 14051 ft | 341 kts | 12° |
| 2026-05-06 16:15 | 49.62326 | -116.06830 | 13635 ft | 341 kts | 12° |
| 2026-05-06 16:16 | 49.64616 | -116.05952 | 13208 ft | 340 kts | 11° |
| 2026-05-06 16:16 | 49.66921 | -116.05117 | 12780 ft | 338 kts | 11° |
| 2026-05-06 16:16 | 49.69194 | -116.04321 | 12387 ft | 336 kts | 11° |
| 2026-05-06 16:16 | 49.71495 | -116.03532 | 12017 ft | 336 kts | 10° |
| 2026-05-06 16:17 | 49.73773 | -116.02760 | 11612 ft | 337 kts | 10° |
| 2026-05-06 16:17 | 49.76047 | -116.01994 | 11154 ft | 336 kts | 10° |
| 2026-05-06 16:17 | 49.78274 | -116.01245 | 11069 ft | 319 kts | 10° |
| 2026-05-06 16:17 | 49.80386 | -116.00535 | 11069 ft | 300 kts | 10° |
| 2026-05-06 16:18 | 49.82375 | -115.99867 | 11065 ft | 284 kts | 10° |
| 2026-05-06 16:18 | 49.84236 | -115.99243 | 11086 ft | 267 kts | 10° |
| 2026-05-06 16:18 | 49.86015 | -115.98646 | 11082 ft | 249 kts | 9° |
| 2026-05-06 16:18 | 49.87680 | -115.98087 | 11059 ft | 235 kts | 9° |
| 2026-05-06 16:19 | 49.89265 | -115.97556 | 11067 ft | 233 kts | 9° |
| 2026-05-06 16:19 | 49.90878 | -115.97018 | 11079 ft | 241 kts | 9° |
| 2026-05-06 16:19 | 49.92509 | -115.96403 | 11068 ft | 242 kts | 19° |
| 2026-05-06 16:19 | 49.93877 | -115.94870 | 11055 ft | 248 kts | 49° |
| 2026-05-06 16:20 | 49.94614 | -115.92396 | 10734 ft | 261 kts | 78° |
| 2026-05-06 16:20 | 49.94707 | -115.89613 | 10382 ft | 261 kts | 88° |
| 2026-05-06 16:20 | 49.94739 | -115.86789 | 9999 ft | 260 kts | 88° |
| 2026-05-06 16:20 | 49.94723 | -115.83976 | 9635 ft | 259 kts | 97° |
| 2026-05-06 16:21 | 49.94062 | -115.81432 | 9324 ft | 254 kts | 129° |
| 2026-05-06 16:21 | 49.92793 | -115.79603 | 9049 ft | 248 kts | 149° |
| 2026-05-06 16:21 | 49.91167 | -115.78919 | 8748 ft | 243 kts | 179° |
| 2026-05-06 16:21 | 49.89469 | -115.78884 | 8424 ft | 242 kts | 179° |
| 2026-05-06 16:22 | 49.87780 | -115.78828 | 8108 ft | 242 kts | 179° |
| 2026-05-06 16:22 | 49.86095 | -115.78779 | 7764 ft | 242 kts | 179° |
| 2026-05-06 16:22 | 49.84398 | -115.78733 | 7421 ft | 242 kts | 179° |
| 2026-05-06 16:22 | 49.82709 | -115.78691 | 7091 ft | 242 kts | 179° |
| 2026-05-06 16:23 | 49.81066 | -115.78652 | 6724 ft | 235 kts | 178° |
| 2026-05-06 16:23 | 49.79509 | -115.78617 | 6510 ft | 209 kts | 178° |
| 2026-05-06 16:23 | 49.78115 | -115.78586 | 6208 ft | 194 kts | 178° |
| 2026-05-06 16:23 | 49.76776 | -115.78554 | 5937 ft | 194 kts | 178° |
| 2026-05-06 16:24 | 49.75462 | -115.78525 | 5654 ft | 180 kts | 178° |
| 2026-05-06 16:24 | 49.74267 | -115.78497 | 5404 ft | 163 kts | 178° |
| 2026-05-06 16:24 | 49.73182 | -115.78474 | 5167 ft | 149 kts | 178° |
| 2026-05-06 16:24 | 49.72194 | -115.78451 | 4947 ft | 136 kts | 178° |
| 2026-05-06 16:25 | 49.71261 | -115.78431 | 4782 ft | 135 kts | 178° |
| 2026-05-06 16:25 | 49.70293 | -115.78410 | 4635 ft | 141 kts | 178° |
| 2026-05-06 16:25 | 49.69320 | -115.78389 | 4453 ft | 141 kts | 178° |
| 2026-05-06 16:25 | 49.68349 | -115.78368 | 4266 ft | 139 kts | 178° |
| 2026-05-06 16:26 | 49.67377 | -115.78346 | 4080 ft | 138 kts | 178° |
| 2026-05-06 16:26 | 49.66418 | -115.78321 | 3896 ft | 138 kts | 178° |
| 2026-05-06 16:26 | 49.65461 | -115.78299 | 3696 ft | 139 kts | 178° |
| 2026-05-06 16:26 | 49.64503 | -115.78278 | 3501 ft | 136 kts | 178° |
| 2026-05-06 16:27 | 49.63544 | -115.78258 | 3340 ft | 142 kts | 178° |
| 2026-05-06 16:27 | 49.62522 | -115.78233 | 3235 ft | 148 kts | 178° |
| 2026-05-06 16:27 | 49.61529 | -115.78209 | 3035 ft | 137 kts | 178° |
| 2026-05-06 16:27 | 49.60681 | -115.78189 | 3070 ft | 106 kts | 180° |
| 2026-05-06 16:28 | 49.60247 | -115.78175 | 3074 ft | 22 kts | 173° |
| 2026-05-06 16:28 | 49.60164 | -115.78138 | 3074 ft | 3 kts | 187° |
| 2026-05-06 16:28 | 49.60151 | -115.78155 | 3073 ft | 1 kts | 248° |
| 2026-05-06 16:28 | 49.60151 | -115.78174 | 3073 ft | 1 kts | 300° |
| 2026-05-06 16:29 | 49.60162 | -115.78181 | 3074 ft | 4 kts | 344° |
| 2026-05-06 16:29 | 49.60239 | -115.78187 | 3074 ft | 15 kts | 358° |
| 2026-05-06 16:29 | 49.60357 | -115.78190 | 3074 ft | 17 kts | 359° |
| 2026-05-06 16:29 | 49.60479 | -115.78191 | 3073 ft | 17 kts | 359° |
| 2026-05-06 16:30 | 49.60620 | -115.78194 | 3071 ft | 23 kts | 360° |
| 2026-05-06 16:30 | 49.60741 | -115.78200 | 3068 ft | 28 kts | 355° |
| 2026-05-06 16:30 | 49.60917 | -115.78417 | 3060 ft | 21 kts | 314° |
| 2026-05-06 16:30 | 49.61053 | -115.78494 | 3054 ft | 22 kts | 359° |
| 2026-05-06 16:31 | 49.61218 | -115.78497 | 3048 ft | 23 kts | 360° |
| 2026-05-06 16:31 | 49.61364 | -115.78513 | 3043 ft | 14 kts | 339° |
| 2026-05-06 16:31 | 49.61418 | -115.78573 | 3040 ft | 2 kts | 318° |
| 2026-05-06 16:31 | 49.61423 | -115.78580 | 3040 ft | 0 kts | 316° |